createdAt,value
2022-07-31T00:04:54.902Z,50.39
2022-07-31T00:09:54.697Z,49.72
2022-07-31T00:14:55.020Z,50.63
2022-07-31T00:19:53.779Z,50.01
2022-07-31T00:24:52.836Z,51.33
2022-07-31T00:29:54.458Z,50.74
2022-07-31T00:34:53.375Z,51.58
2022-07-31T00:39:52.177Z,52.48
2022-07-31T00:44:51.717Z,52.65
2022-07-31T00:49:52.055Z,54.34
2022-07-31T00:54:51.016Z,53.83
2022-07-31T00:59:50.622Z,53.74
2022-07-31T01:04:49.384Z,54.81
2022-07-31T01:09:50.866Z,55.81
2022-07-31T01:14:51.171Z,55.07
2022-07-31T01:19:51.837Z,57.02
2022-07-31T01:25:04.861Z,57.18
2022-07-31T01:30:14.287Z,57.65
2022-07-31T01:35:17.284Z,57.05
2022-07-31T01:40:21.534Z,56.81
2022-07-31T01:45:23.792Z,56.23
2022-07-31T01:50:43.757Z,56.12
2022-07-31T01:55:56.385Z,56.43
2022-07-31T02:01:05.742Z,55.62
2022-07-31T02:06:05.918Z,56.72
2022-07-31T02:11:04.935Z,55.48
2022-07-31T02:16:07.689Z,55.37
2022-07-31T02:21:07.941Z,55.74
2022-07-31T02:26:08.946Z,56.31
2022-07-31T02:31:12.597Z,57.13
2022-07-31T02:36:14.304Z,56.88
2022-07-31T02:41:15.806Z,56.59
2022-07-31T02:46:16.473Z,57.05
2022-07-31T02:51:15.474Z,56.77
2022-07-31T02:56:15.842Z,56.54
2022-07-31T03:01:17.031Z,57.00
2022-07-31T03:06:16.354Z,56.97
2022-07-31T03:11:15.410Z,56.93
2022-07-31T03:16:15.677Z,58.01
2022-07-31T03:21:16.831Z,57.87
2022-07-31T03:26:18.283Z,57.81
2022-07-31T03:31:17.257Z,57.90
2022-07-31T03:36:17.880Z,59.18
2022-07-31T03:41:16.972Z,59.25
2022-07-31T03:46:18.196Z,60.82
2022-07-31T03:51:18.495Z,60.63
2022-07-31T03:56:18.833Z,61.19
2022-07-31T04:01:20.651Z,61.57
2022-07-31T04:06:22.590Z,61.93
2022-07-31T04:11:21.359Z,61.21
2022-07-31T04:16:20.199Z,63.36
2022-07-31T04:21:19.451Z,62.61
2022-07-31T04:26:25.607Z,63.95
2022-07-31T04:31:33.639Z,64.74
2022-07-31T04:36:32.874Z,65.16
2022-07-31T04:41:34.067Z,66.52
2022-07-31T04:46:32.882Z,65.99
2022-07-31T04:51:31.681Z,67.10
2022-07-31T04:56:37.679Z,66.55
2022-07-31T05:01:39.041Z,67.43
2022-07-31T05:06:39.274Z,67.86
2022-07-31T05:11:38.942Z,67.66
2022-07-31T05:16:39.638Z,67.72
2022-07-31T05:21:52.862Z,67.50
2022-07-31T05:27:09.055Z,66.47
2022-07-31T05:32:09.410Z,66.88
2022-07-31T05:37:09.141Z,66.88
2022-07-31T05:42:09.321Z,67.83
2022-07-31T05:47:40.091Z,69.16
2022-07-31T05:52:40.980Z,69.13
2022-07-31T05:57:54.720Z,68.79
2022-07-31T06:02:55.020Z,67.68
2022-07-31T06:08:13.642Z,68.04
2022-07-31T06:13:16.673Z,68.63
2022-07-31T06:18:17.194Z,68.06
2022-07-31T06:23:22.836Z,67.46
2022-07-31T06:28:47.635Z,67.41
2022-07-31T06:33:51.219Z,68.46
2022-07-31T06:38:55.216Z,66.78
2022-07-31T06:44:21.463Z,66.50
2022-07-31T06:49:40.907Z,65.88
2022-07-31T06:54:39.679Z,66.39
2022-07-31T06:59:39.182Z,66.01
2022-07-31T07:05:04.674Z,65.20
2022-07-31T07:10:00.112Z,63.13
2022-07-31T07:15:17.342Z,62.53
2022-07-31T07:20:17.646Z,61.47
2022-07-31T07:25:16.558Z,59.70
2022-07-31T07:30:15.638Z,57.37
2022-07-31T07:35:14.600Z,57.42
2022-07-31T07:40:26.969Z,57.21
2022-07-31T07:45:25.926Z,57.32
2022-07-31T07:50:27.091Z,58.29
2022-07-31T07:55:56.936Z,58.00
2022-07-31T08:01:14.298Z,57.50
2022-07-31T08:06:15.035Z,57.70
2022-07-31T08:11:17.369Z,56.61
2022-07-31T08:16:37.375Z,55.07
2022-07-31T08:21:36.410Z,53.10
2022-07-31T08:26:51.401Z,53.95
2022-07-31T08:31:51.836Z,53.54
2022-07-31T08:37:59.106Z,54.15
2022-07-31T08:42:36.799Z,54.00
2022-07-31T08:47:37.307Z,52.86
2022-07-31T08:52:44.715Z,51.84
2022-07-31T08:57:51.895Z,50.36
2022-07-31T09:02:52.385Z,49.18
2022-07-31T09:08:17.102Z,48.46
2022-07-31T09:13:21.046Z,47.51
2022-07-31T09:18:24.828Z,46.19
2022-07-31T09:23:46.681Z,44.87
2022-07-31T09:28:51.451Z,43.08
2022-07-31T09:33:50.279Z,42.30
2022-07-31T09:39:20.486Z,42.10
2022-07-31T09:44:47.638Z,40.61
2022-07-31T09:49:54.661Z,40.63
2022-07-31T09:55:03.060Z,40.24
2022-07-31T10:00:17.760Z,40.22
2022-07-31T10:05:18.867Z,38.67
2022-07-31T10:10:18.781Z,38.48
2022-07-31T10:15:38.800Z,37.82
2022-07-31T10:21:08.160Z,36.05
2022-07-31T10:27:00.696Z,35.01
2022-07-31T10:32:02.501Z,35.63
2022-07-31T10:37:11.321Z,34.87
2022-07-31T10:42:45.927Z,34.74
2022-07-31T10:47:57.494Z,35.49
2022-07-31T10:53:16.556Z,36.65
2022-07-31T10:58:32.643Z,36.56
2022-07-31T11:03:46.662Z,35.62
2022-07-31T11:09:03.903Z,35.22
2022-07-31T11:14:33.322Z,32.67
2022-07-31T11:19:54.233Z,32.02
2022-07-31T11:24:55.614Z,33.10
2022-07-31T11:30:01.945Z,33.07
2022-07-31T11:35:04.373Z,33.07
2022-07-31T11:40:06.480Z,32.68
2022-07-31T11:45:11.134Z,32.88
2022-07-31T11:50:30.936Z,35.04
2022-07-31T11:55:29.922Z,35.38
2022-07-31T12:00:30.162Z,37.09
2022-07-31T12:05:38.862Z,38.77
2022-07-31T12:10:39.895Z,40.21
2022-07-31T12:15:38.347Z,40.84
2022-07-31T12:20:38.392Z,38.21
2022-07-31T12:25:45.770Z,32.82
2022-07-31T12:30:45.406Z,32.24
2022-07-31T12:35:54.963Z,30.44
2022-07-31T12:41:05.351Z,30.01
2022-07-31T12:46:06.255Z,29.35
2022-07-31T12:51:06.434Z,28.23
2022-07-31T12:56:05.557Z,27.59
2022-07-31T13:01:04.564Z,27.46
2022-07-31T13:06:03.335Z,26.84
2022-07-31T13:11:03.481Z,26.21
2022-07-31T13:16:02.228Z,26.15
2022-07-31T13:21:01.446Z,25.46
2022-07-31T13:26:00.810Z,25.15
2022-07-31T13:31:00.936Z,25.64
2022-07-31T13:35:59.694Z,26.14
2022-07-31T13:41:15.873Z,25.22
2022-07-31T13:46:16.116Z,25.63
2022-07-31T13:51:15.051Z,25.13
2022-07-31T13:56:14.047Z,26.27
2022-07-31T14:02:02.999Z,27.10
2022-07-31T14:06:52.901Z,27.46
2022-07-31T14:11:51.663Z,28.40
2022-07-31T14:16:51.813Z,28.62
2022-07-31T14:21:57.121Z,28.88
2022-07-31T14:26:56.197Z,29.96
2022-07-31T14:31:56.502Z,29.44
2022-07-31T14:36:55.254Z,28.46
2022-07-31T14:41:54.014Z,27.77
2022-07-31T14:46:52.852Z,26.48
2022-07-31T14:51:53.034Z,25.49
2022-07-31T14:57:01.297Z,26.29
2022-07-31T15:02:00.668Z,26.26
2022-07-31T15:07:18.967Z,26.30
2022-07-31T15:12:19.981Z,24.75
2022-07-31T15:17:18.717Z,23.74
2022-07-31T15:22:19.511Z,23.96
2022-07-31T15:27:19.062Z,23.43
2022-07-31T15:32:17.814Z,23.33
2022-07-31T15:37:20.342Z,23.75
2022-07-31T15:42:23.224Z,23.67
2022-07-31T15:47:22.047Z,23.80
2022-07-31T15:52:20.852Z,23.68
2022-07-31T15:57:21.272Z,23.36
2022-07-31T16:02:19.995Z,23.91
2022-07-31T16:08:31.906Z,24.12
2022-07-31T16:12:39.169Z,24.13
2022-07-31T16:17:40.793Z,24.65
2022-07-31T16:22:41.157Z,23.96
2022-07-31T16:27:41.569Z,24.55
2022-07-31T16:32:40.561Z,25.04
2022-07-31T16:37:51.111Z,24.54
2022-07-31T16:42:53.798Z,24.92
2022-07-31T16:47:52.581Z,24.26
2022-07-31T16:52:54.557Z,24.68
2022-07-31T16:57:55.370Z,24.74
2022-07-31T17:02:54.500Z,25.34
2022-07-31T17:07:53.273Z,31.07
2022-07-31T17:12:52.142Z,34.19
2022-07-31T17:17:52.383Z,36.87
2022-07-31T17:22:54.449Z,38.09
2022-07-31T17:27:53.603Z,38.59
2022-07-31T17:32:53.696Z,38.77
2022-07-31T17:37:52.508Z,39.42
2022-07-31T17:42:51.303Z,40.48
2022-07-31T17:48:03.773Z,41.07
2022-07-31T17:53:04.237Z,42.46
2022-07-31T17:58:03.023Z,43.27
2022-07-31T18:03:02.395Z,43.63
2022-07-31T18:08:01.352Z,44.08
2022-07-31T18:13:01.513Z,44.48
2022-07-31T18:18:00.285Z,44.51
2022-07-31T18:22:59.047Z,45.55
2022-07-31T18:27:59.100Z,46.39
2022-07-31T18:32:59.280Z,47.09
2022-07-31T18:37:58.617Z,47.56
2022-07-31T18:42:57.364Z,47.33
2022-07-31T18:47:56.213Z,47.91
2022-07-31T18:52:56.365Z,46.98
2022-07-31T18:57:55.212Z,46.71
2022-07-31T19:02:56.582Z,48.36
2022-07-31T19:07:56.990Z,47.57
2022-07-31T19:12:56.307Z,46.92
2022-07-31T19:17:57.718Z,45.76
2022-07-31T19:22:59.131Z,46.26
2022-07-31T19:27:57.864Z,46.89
2022-07-31T19:32:56.881Z,46.83
2022-07-31T19:38:01.080Z,46.85
2022-07-31T19:42:59.878Z,47.24
2022-07-31T19:47:58.863Z,47.07
2022-07-31T19:52:57.645Z,47.85
2022-07-31T19:57:57.808Z,47.02
2022-07-31T20:02:56.988Z,47.07
2022-07-31T20:07:55.897Z,47.27
2022-07-31T20:12:54.637Z,47.29
2022-07-31T20:17:54.777Z,47.90
2022-07-31T20:22:53.691Z,48.04
2022-07-31T20:27:52.507Z,48.56
2022-07-31T20:32:51.710Z,48.23
2022-07-31T20:37:55.664Z,47.88
2022-07-31T20:42:54.607Z,48.95
2022-07-31T20:47:53.442Z,49.23
2022-07-31T20:52:53.709Z,49.33
2022-07-31T20:57:52.526Z,49.15
2022-07-31T21:02:51.578Z,49.48
2022-07-31T21:07:50.782Z,49.71
2022-07-31T21:12:50.911Z,50.30
2022-07-31T21:17:49.600Z,50.60
2022-07-31T21:22:48.309Z,50.72
2022-07-31T21:27:48.780Z,51.93
2022-07-31T21:32:49.340Z,52.05
2022-07-31T21:37:48.532Z,52.44
2022-07-31T21:42:57.259Z,51.39
2022-07-31T21:48:01.060Z,50.91
2022-07-31T21:52:59.742Z,49.33
2022-07-31T21:57:59.635Z,48.70
2022-07-31T22:03:00.223Z,47.97
2022-07-31T22:07:58.943Z,47.80
2022-07-31T22:12:57.779Z,46.34
2022-07-31T22:17:56.537Z,45.70
2022-07-31T22:22:57.958Z,43.85
2022-07-31T22:27:57.219Z,43.47
2022-07-31T22:32:58.897Z,42.67
2022-07-31T22:37:58.828Z,42.67
2022-07-31T22:42:58.440Z,41.45
2022-07-31T22:48:01.831Z,41.11
2022-07-31T22:53:01.933Z,41.18
2022-07-31T22:58:00.654Z,41.26
2022-07-31T23:02:59.561Z,41.48
2022-07-31T23:07:58.308Z,41.21
2022-07-31T23:12:59.427Z,41.29
2022-07-31T23:17:59.721Z,41.28
2022-07-31T23:22:58.464Z,41.76
2022-07-31T23:27:58.635Z,41.32
2022-07-31T23:32:57.454Z,41.52
2022-07-31T23:37:56.225Z,41.90
2022-07-31T23:42:55.308Z,42.04
2022-07-31T23:47:55.547Z,41.94
2022-07-31T23:52:57.711Z,42.34
2022-07-31T23:57:56.435Z,42.28
